Colorado Springs, CO

2:12 PM MST on December 27, 2014 (GMT -0700)
City Of Colorado Springs Municipal | Change Station
CLOSE
Current Station
Airport
Location: Colorado Springs,
Elevation: 6171 ft
Nearby Weather Stations

Elev 6171 ft 38.81 °N, 104.69 °W | Updated 18 minutes ago

Clear
Clear
26 °F
Feels Like 15 °F
N
13
Wind Variable Wind from South

Today
High -- | Low -- °F
--% Chance of Precip.
Yesterday
High -- | Low -- °F
Precip. -- in
7:16 AM 4:44 PM
Waxing Crescent, 40% visible
Pressure 30.26 in
Visibility 10.0 miles
Clouds Few 2700 ft
Windchill 15 °F
Dew Point 7 °F
Humidity 44%
Rainfall 0.00 in
Snow Depth Not available.
UV 2 out of 12
Pollen .10 out of 12
Air Quality Not available.
Flu Activity Not available.
METAR KCOS 272054Z 17011KT 10SM FEW027 M03/M14 A3006 RMK AO2 SLP245 T10331139 56027

More Conditions Fewer Conditions

Pressure 30.26 in
Visibility 10.0 miles
Clouds Few 2700 ft
Windchill 15 °F
Dew Point 7 °F
Humidity 44%
Rainfall 0.00 in
Snow Depth Not available.
UV 2 out of 12
Pollen .10 out of 12
Air Quality Not available.
Flu Activity Not available.
METAR KCOS 272054Z 17011KT 10SM FEW027 M03/M14 A3006 RMK AO2 SLP245 T10331139 56027

More Conditions Fewer Conditions

10-Day Weather Forecast

Almanac

Astronomy

Dec. 27, 2014 Rise Set
Actual Time
Civil Twilight
Nautical Twilight
Astronomical Twilight
Moon
Length of Visible Light
Length of Day
Tomorrow will be .
, % of the Moon is Illuminated

Today's Extremes

State Highs State Lows

Community

WunderPhotos

Upload Photos

1,781,065 photos uploaded!

WunderBlogs® & News

Nearby

Air Quality

  Air Quality AQ Index Pollutant
Not available.

Snow Depth

Station Depth Elevation

Earthquake Activity

City Distance Mag. Time & Date
Minimum magnitude displayed is 2.5.

Coastal Water Temperatures

Place Temperature

Nearby Weather Stations